South Aberdeen, Washington
Current Conditions -  °F | °C
As of 12:53 PM on Sunday 23 Nov 2014 (Local Time) from KHQM Reporting Station
Haze Haze  
Wind Chill: 54°   Ceiling: Unl
Heat Index: 54°   Visibility: 6mi
Dew Point: 45°   Wind: 13mph
Humidity: 72%   Direction: 270°W
Pressure: 30.19"   Gusts: NA
Location:  47.1445°N, 123.771°W
Report Text: KHQM 232053Z AUTO 27011KT 6SM HZ SCT036 SCT060 12/07 A3019 RMK AO2 SLP227 T01220072 53006
Loading
Personal Weather Stations






























Interactive Weather Map New forecast layout! Learn more

10-Day Weather Forecast

Advertisements
Track Severe Weather on mobile